Time;durP1;ratioP1;P1;durP2;ratioP2;P2;SDS_P1;SDS_P2;PMS_P1;PMS_P2;Temp;Humidity;BMP_temperature;BMP_pressure;BME280_temperature;BME280_humidity;BME280_pressure;Samples;Min_cycle;Max_cycle;Signal;HPM_P1;HPM_P2
2021/12/25 00:01:05;;;;;;;4.30;1.77;;;-1.20;99.90;;;;;;5089665;28;20044;-76
2021/12/25 00:03:32;;;;;;;3.53;1.05;;;-1.30;99.90;;;;;;5091379;28;20066;-77
2021/12/25 00:05:57;;;;;;;13.50;2.00;;;-1.30;99.90;;;;;;5110661;27;20496;-77
2021/12/25 00:08:25;;;;;;;6.85;1.20;;;-1.30;99.90;;;;;;5109504;28;20042;-77
2021/12/25 00:10:52;;;;;;;6.65;0.90;;;-1.30;99.90;;;;;;5109584;28;20899;-79
2021/12/25 00:13:19;;;;;;;6.00;1.15;;;-1.40;99.90;;;;;;5096908;28;20043;-77
2021/12/25 00:15:45;;;;;;;8.52;1.02;;;-1.40;99.90;;;;;;5074306;28;20063;-77
2021/12/25 00:18:11;;;;;;;8.98;1.65;;;-1.30;99.90;;;;;;5109659;28;20044;-77
2021/12/25 00:20:37;;;;;;;4.40;0.93;;;-1.40;99.90;;;;;;5108841;28;20051;-76
2021/12/25 00:23:05;;;;;;;12.18;3.10;;;-1.50;99.90;;;;;;5110311;27;20494;-77
2021/12/25 00:25:40;;;;;;;3.00;1.58;;;-1.50;99.90;;;;;;5095696;27;20059;-75
2021/12/25 00:28:23;;;;;;;4.85;0.98;;;-1.40;99.90;;;;;;5107775;27;20039;-76
2021/12/25 00:36:09;;;;;;;2.17;0.70;;;-1.50;99.90;;;;;;5098663;27;20405;-77
2021/12/25 00:38:36;;;;;;;2.22;0.70;;;-1.70;99.90;;;;;;5118507;27;20036;-77
2021/12/25 00:41:03;;;;;;;4.40;0.73;;;-1.60;99.90;;;;;;5114704;27;20042;-76
2021/12/25 00:43:29;;;;;;;2.03;0.68;;;-1.60;99.90;;;;;;5129379;27;20054;-77
2021/12/25 00:45:54;;;;;;;3.47;1.35;;;-1.60;99.90;;;;;;5095643;27;20036;-76
2021/12/25 00:48:20;;;;;;;1.42;0.47;;;-1.60;99.90;;;;;;5127497;27;20092;-76
2021/12/25 00:50:46;;;;;;;3.75;0.82;;;-1.70;99.90;;;;;;5132553;27;20039;-78
2021/12/25 00:53:11;;;;;;;2.55;0.77;;;-1.70;99.90;;;;;;5117247;27;20504;-77
2021/12/25 00:55:37;;;;;;;2.78;1.42;;;-1.70;99.90;;;;;;5111855;27;20047;-77
2021/12/25 00:58:02;;;;;;;3.72;0.68;;;-1.80;99.90;;;;;;5114163;27;20130;-77
2021/12/25 01:00:28;;;;;;;2.90;0.57;;;-1.80;99.90;;;;;;5112721;27;20040;-77
2021/12/25 01:02:54;;;;;;;2.50;0.60;;;-1.80;99.90;;;;;;5124083;27;20053;-76
2021/12/25 01:05:20;;;;;;;2.53;0.60;;;-1.80;99.90;;;;;;5115157;27;20156;-77
2021/12/25 01:07:46;;;;;;;4.45;1.05;;;-1.90;99.90;;;;;;5102407;28;20084;-78
2021/12/25 01:10:17;;;;;;;3.67;0.70;;;-1.90;99.90;;;;;;5112601;28;20397;-78
2021/12/25 01:13:09;;;;;;;5.50;0.95;;;-2.00;99.90;;;;;;5108086;27;20039;-73
2021/12/25 01:15:44;;;;;;;2.00;1.10;;;-2.00;99.90;;;;;;5105105;27;20489;-77
2021/12/25 01:37:08;;;;;;;11.30;2.85;;;-2.20;99.90;;;;;;5117308;27;20485;-76
2021/12/25 01:47:48;;;;;;;7.93;1.38;;;-2.40;99.90;;;;;;5103088;28;20047;-76
2021/12/25 01:50:16;;;;;;;1.67;1.02;;;-2.30;99.90;;;;;;5112413;27;20122;-74
2021/12/25 01:52:42;;;;;;;3.17;0.38;;;-2.40;99.90;;;;;;5098461;28;20134;-74
2021/12/25 01:55:11;;;;;;;5.95;0.77;;;-2.40;99.90;;;;;;5104858;28;20142;-76
2021/12/25 01:57:37;;;;;;;2.75;0.60;;;-2.50;99.90;;;;;;5116210;27;20513;-77
2021/12/25 02:00:19;;;;;;;9.20;1.85;;;-2.50;99.90;;;;;;5113467;27;20117;-76
2021/12/25 02:02:46;;;;;;;5.13;1.00;;;-2.60;99.90;;;;;;5115366;27;20047;-77
2021/12/25 02:05:13;;;;;;;6.13;2.38;;;-2.60;99.90;;;;;;5094520;28;20047;-72
2021/12/25 02:07:39;;;;;;;2.08;0.65;;;-2.60;99.90;;;;;;5110877;27;20114;-77
2021/12/25 02:10:06;;;;;;;2.58;0.70;;;-2.60;99.90;;;;;;5093088;28;20075;-75
2021/12/25 02:12:33;;;;;;;1.30;0.45;;;-2.70;99.90;;;;;;5117292;27;20034;-76
2021/12/25 02:15:08;;;;;;;2.65;0.68;;;-2.70;99.90;;;;;;5120347;27;20135;-74
2021/12/25 02:18:24;;;;;;;2.92;0.40;;;-2.70;99.90;;;;;;5111614;27;20047;-74
2021/12/25 02:20:31;;;;;;;2.95;0.40;;;-2.80;99.90;;;;;;5103528;28;20409;-76
2021/12/25 02:23:02;;;;;;;1.10;0.40;;;-2.80;99.90;;;;;;5116919;27;20089;-76
2021/12/25 02:25:30;;;;;;;1.38;0.35;;;-2.80;99.90;;;;;;5117778;27;20417;-80
2021/12/25 02:27:56;;;;;;;1.38;0.68;;;-2.80;99.90;;;;;;5117915;27;20054;-78
2021/12/25 02:30:22;;;;;;;2.33;0.85;;;-2.80;99.90;;;;;;5112268;27;20051;-78
2021/12/25 02:32:48;;;;;;;4.50;1.15;;;-2.90;99.90;;;;;;5123873;27;20036;-78
2021/12/25 02:35:14;;;;;;;1.73;0.77;;;-2.90;99.90;;;;;;5098003;28;20051;-73
2021/12/25 02:37:40;;;;;;;4.53;0.77;;;-2.90;99.90;;;;;;5121001;27;20035;-78
2021/12/25 02:40:08;;;;;;;2.67;0.55;;;-3.00;99.90;;;;;;5113158;27;20080;-78
2021/12/25 02:42:34;;;;;;;4.68;0.80;;;-3.00;99.90;;;;;;5117430;27;20039;-79
2021/12/25 02:45:00;;;;;;;4.18;1.17;;;-3.00;99.90;;;;;;5121709;27;20062;-78
2021/12/25 02:47:29;;;;;;;3.47;0.50;;;-3.00;99.90;;;;;;5084780;28;20485;-79
2021/12/25 02:49:55;;;;;;;1.10;0.80;;;-3.10;99.90;;;;;;5102724;27;20043;-78
2021/12/25 02:52:21;;;;;;;1.58;0.70;;;-3.00;99.90;;;;;;5118397;27;20066;-78
2021/12/25 02:54:47;;;;;;;5.93;0.70;;;-3.00;99.90;;;;;;5100753;27;20468;-79
2021/12/25 02:57:13;;;;;;;3.25;0.85;;;-3.10;99.90;;;;;;5125255;27;20485;-74
2021/12/25 02:59:39;;;;;;;9.05;1.42;;;-3.10;99.90;;;;;;5115133;27;20054;-78
2021/12/25 03:02:15;;;;;;;8.88;1.35;;;-3.10;99.90;;;;;;5111531;27;20088;-78
2021/12/25 03:04:44;;;;;;;1.00;0.20;;;-3.10;99.90;;;;;;5124111;27;20050;-78
2021/12/25 03:07:11;;;;;;;0.77;0.30;;;-3.20;99.90;;;;;;5114359;27;20054;-78
2021/12/25 03:09:37;;;;;;;0.95;0.60;;;-3.30;99.90;;;;;;5110417;27;20036;-77
2021/12/25 03:12:05;;;;;;;4.65;0.88;;;-3.20;99.90;;;;;;5096086;27;20121;-77
2021/12/25 03:14:50;;;;;;;3.97;0.73;;;-3.30;99.90;;;;;;5121401;27;20040;-76
2021/12/25 03:17:16;;;;;;;2.60;0.30;;;-3.30;99.90;;;;;;5108485;27;20055;-77
2021/12/25 03:19:41;;;;;;;1.10;0.77;;;-3.30;99.90;;;;;;5110482;28;20036;-78
2021/12/25 03:22:07;;;;;;;1.67;0.75;;;-3.30;99.90;;;;;;5109825;28;20531;-77
2021/12/25 03:24:34;;;;;;;4.05;0.47;;;-3.40;99.90;;;;;;5112649;27;20500;-77
2021/12/25 03:26:59;;;;;;;0.70;0.60;;;-3.40;99.90;;;;;;5118551;27;20051;-77
2021/12/25 03:29:26;;;;;;;8.90;0.88;;;-3.40;99.90;;;;;;5074871;28;20044;-77
2021/12/25 03:31:53;;;;;;;1.65;0.43;;;-3.40;99.90;;;;;;5122334;27;20122;-77
2021/12/25 03:34:19;;;;;;;3.63;1.35;;;-3.40;99.90;;;;;;5092576;27;20062;-77
2021/12/25 03:36:45;;;;;;;3.97;0.50;;;-3.40;99.90;;;;;;5092420;27;20050;-77
2021/12/25 03:39:11;;;;;;;2.30;0.40;;;-3.50;99.90;;;;;;5119448;27;20044;-77
2021/12/25 03:41:37;;;;;;;1.95;0.80;;;-3.40;99.90;;;;;;5113808;27;20038;-78
2021/12/25 03:44:03;;;;;;;5.38;0.75;;;-3.40;99.90;;;;;;5113526;27;20039;-77
2021/12/25 03:46:30;;;;;;;0.77;0.28;;;-3.50;99.90;;;;;;5122017;27;20168;-77
2021/12/25 03:49:03;;;;;;;1.63;0.57;;;-3.40;99.90;;;;;;5120817;27;20040;-77
2021/12/25 03:59:47;;;;;;;1.02;0.25;;;-3.50;99.90;;;;;;5116549;27;20043;-71
2021/12/25 04:02:19;;;;;;;;;;;-3.50;99.90;;;;;;5109451;28;20096;-73
2021/12/25 04:04:47;;;;;;;0.50;0.50;;;-3.50;99.90;;;;;;5122811;27;19925;-76
2021/12/25 04:10:03;;;;;;;6.18;1.60;;;-3.60;99.90;;;;;;5123691;27;20079;-77
2021/12/25 04:12:29;;;;;;;2.08;0.30;;;-3.60;99.90;;;;;;5118483;27;20126;-77
2021/12/25 04:14:55;;;;;;;0.93;0.25;;;-3.60;99.90;;;;;;5127488;27;20549;-77
2021/12/25 04:17:20;;;;;;;0.88;0.30;;;-3.60;99.90;;;;;;5118344;27;20508;-77
2021/12/25 04:19:46;;;;;;;2.15;0.50;;;-3.70;99.90;;;;;;5125841;27;20044;-78
2021/12/25 04:22:19;;;;;;;1.35;0.30;;;-3.70;99.90;;;;;;5113712;27;20374;-77
2021/12/25 04:24:46;;;;;;;0.93;0.30;;;-3.80;99.90;;;;;;5121979;27;20079;-77
2021/12/25 04:27:15;;;;;;;2.58;1.05;;;-3.80;99.90;;;;;;5111705;27;20058;-77
2021/12/25 04:29:57;;;;;;;3.78;0.35;;;-3.90;99.90;;;;;;5116389;27;20430;-77
2021/12/25 05:02:44;;;;;;;1.58;0.60;;;-4.10;99.90;;;;;;5107023;27;20485;-78
2021/12/25 05:05:15;;;;;;;3.33;0.30;;;-4.10;99.90;;;;;;5123416;27;20100;-78
2021/12/25 05:07:40;;;;;;;0.52;0.30;;;-4.10;99.90;;;;;;5121730;27;20370;-77
2021/12/25 05:10:06;;;;;;;0.90;0.30;;;-4.00;99.90;;;;;;5125457;27;20050;-73
2021/12/25 05:12:32;;;;;;;1.13;0.40;;;-4.00;99.90;;;;;;5127502;27;20376;-77
2021/12/25 05:14:59;;;;;;;0.22;0.22;;;-4.10;99.90;;;;;;5121684;27;20569;-76
2021/12/25 05:17:25;;;;;;;2.75;0.32;;;-4.10;99.90;;;;;;5130427;27;20043;-75
2021/12/25 05:19:51;;;;;;;0.47;0.20;;;-4.20;99.90;;;;;;5123210;27;20071;-79
2021/12/25 05:22:18;;;;;;;2.17;0.65;;;-4.20;99.90;;;;;;5125354;27;20448;-77
2021/12/25 05:24:44;;;;;;;0.70;0.35;;;-4.20;99.90;;;;;;5114497;27;20054;-76
2021/12/25 05:27:12;;;;;;;1.70;0.70;;;-4.20;99.90;;;;;;5112129;27;20050;-76
2021/12/25 05:29:41;;;;;;;1.27;0.25;;;-4.10;99.90;;;;;;5112677;27;20104;-77
2021/12/25 05:32:06;;;;;;;1.35;0.40;;;-4.20;99.90;;;;;;5117266;27;20378;-77
2021/12/25 05:34:32;;;;;;;2.63;0.95;;;-4.10;99.90;;;;;;5125940;27;20734;-76
2021/12/25 05:36:58;;;;;;;4.65;0.90;;;-4.20;99.90;;;;;;5118937;27;20512;-76
2021/12/25 05:39:23;;;;;;;0.90;0.63;;;-4.10;99.90;;;;;;5111671;27;20160;-76
2021/12/25 05:41:50;;;;;;;1.08;0.38;;;-4.20;99.90;;;;;;5123263;27;20043;-77
2021/12/25 05:44:15;;;;;;;1.48;0.80;;;-4.20;99.90;;;;;;5107528;27;20043;-77
2021/12/25 05:46:41;;;;;;;2.38;0.57;;;-4.20;99.90;;;;;;5116507;27;20393;-76
2021/12/25 05:49:06;;;;;;;7.28;1.33;;;-4.10;99.90;;;;;;5123151;27;20084;-76
2021/12/25 05:51:32;;;;;;;2.60;1.38;;;-4.20;99.90;;;;;;5121437;27;20091;-78
2021/12/25 05:53:58;;;;;;;0.70;0.70;;;-4.10;99.90;;;;;;5125341;27;20034;-76
2021/12/25 05:56:23;;;;;;;1.45;0.57;;;-4.10;99.90;;;;;;5114723;27;20120;-77
2021/12/25 05:58:49;;;;;;;2.03;0.30;;;-4.20;99.90;;;;;;5113612;27;20049;-77
2021/12/25 06:01:15;;;;;;;0.75;0.30;;;-4.10;99.90;;;;;;5114437;27;20405;-76
2021/12/25 06:03:40;;;;;;;2.35;0.60;;;-4.30;99.90;;;;;;5126559;27;20043;-76
2021/12/25 06:06:07;;;;;;;2.00;0.80;;;-4.30;99.90;;;;;;5125790;27;20077;-76
2021/12/25 06:08:33;;;;;;;5.00;0.60;;;-4.30;99.90;;;;;;5113684;27;20050;-77
2021/12/25 06:11:02;;;;;;;0.80;0.70;;;-4.30;99.90;;;;;;5113286;27;20039;-76
2021/12/25 06:13:28;;;;;;;0.73;0.40;;;-4.40;99.90;;;;;;5130315;27;20047;-76
2021/12/25 06:15:55;;;;;;;0.93;0.43;;;-4.40;99.90;;;;;;5097852;27;20125;-76
2021/12/25 06:18:21;;;;;;;2.35;0.50;;;-4.50;99.90;;;;;;5110138;27;20080;-77
2021/12/25 06:20:47;;;;;;;1.27;0.77;;;-4.50;99.90;;;;;;5099490;27;20382;-77
2021/12/25 06:23:13;;;;;;;1.17;0.45;;;-4.50;99.90;;;;;;5119723;27;20390;-72
2021/12/25 06:25:38;;;;;;;1.45;0.90;;;-4.50;99.90;;;;;;5127224;27;20078;-76
2021/12/25 06:28:04;;;;;;;1.23;0.30;;;-4.60;99.90;;;;;;5123141;27;20039;-76
2021/12/25 06:30:30;;;;;;;0.73;0.22;;;-4.70;99.90;;;;;;5117353;27;20035;-76
2021/12/25 06:32:56;;;;;;;0.50;0.30;;;-4.60;99.90;;;;;;5118415;27;20088;-76
2021/12/25 06:35:21;;;;;;;3.72;1.05;;;-4.60;99.90;;;;;;5127208;27;20044;-76
2021/12/25 06:37:47;;;;;;;0.70;0.20;;;-4.70;99.90;;;;;;5118400;27;20043;-75
2021/12/25 06:40:17;;;;;;;4.47;0.40;;;-4.70;99.90;;;;;;5112832;27;20409;-72
2021/12/25 06:42:43;;;;;;;2.85;0.40;;;-4.70;99.90;;;;;;5111675;27;20040;-75
2021/12/25 06:45:09;;;;;;;4.35;0.70;;;-4.70;99.90;;;;;;5110468;27;20047;-76
2021/12/25 06:47:35;;;;;;;3.70;0.65;;;-4.70;99.90;;;;;;5093540;28;20047;-78
2021/12/25 06:50:01;;;;;;;2.20;0.90;;;-4.80;99.90;;;;;;5092626;28;20035;-77
2021/12/25 06:52:27;;;;;;;1.92;0.60;;;-4.70;99.90;;;;;;5122840;27;20084;-78
2021/12/25 06:54:52;;;;;;;0.45;0.30;;;-4.70;99.90;;;;;;5119239;27;20174;-75
2021/12/25 06:57:18;;;;;;;2.53;0.30;;;-4.70;99.90;;;;;;5122820;27;20050;-75
2021/12/25 06:59:44;;;;;;;1.23;0.40;;;-4.70;99.90;;;;;;5113406;27;20043;-76
2021/12/25 07:02:09;;;;;;;3.28;1.60;;;-4.70;99.90;;;;;;5094027;27;20046;-76
2021/12/25 07:04:35;;;;;;;4.82;0.68;;;-4.80;99.90;;;;;;5092237;28;20039;-78
2021/12/25 07:07:01;;;;;;;3.65;0.98;;;-4.60;99.90;;;;;;5121324;27;20035;-77
2021/12/25 07:09:26;;;;;;;1.65;0.70;;;-4.70;99.90;;;;;;5125708;27;20100;-76
2021/12/25 07:11:52;;;;;;;1.15;0.30;;;-4.60;99.90;;;;;;5115480;27;20481;-77
2021/12/25 07:14:18;;;;;;;1.25;0.55;;;-4.60;99.90;;;;;;5120727;27;20031;-76
2021/12/25 07:16:43;;;;;;;2.13;0.55;;;-4.70;99.90;;;;;;5116074;27;20080;-76
2021/12/25 07:19:12;;;;;;;3.15;2.35;;;-4.70;99.90;;;;;;5108979;27;20048;-77
2021/12/25 07:21:38;;;;;;;2.70;1.30;;;-4.70;99.90;;;;;;5119702;27;20051;-78
2021/12/25 07:24:04;;;;;;;3.92;0.95;;;-4.50;99.90;;;;;;5091444;28;20044;-77
2021/12/25 07:26:30;;;;;;;1.98;0.98;;;-4.60;99.90;;;;;;5073034;28;20063;-78
2021/12/25 07:28:56;;;;;;;3.00;0.43;;;-4.60;99.90;;;;;;5109047;27;20096;-77
2021/12/25 07:31:22;;;;;;;6.63;1.52;;;-4.50;99.90;;;;;;5116666;27;20565;-79
2021/12/25 07:33:47;;;;;;;0.82;0.52;;;-4.50;99.90;;;;;;5093062;28;20092;-79
2021/12/25 07:36:14;;;;;;;1.92;0.80;;;-4.60;99.90;;;;;;5121921;27;20546;-76
2021/12/25 07:38:40;;;;;;;1.60;0.28;;;-4.50;99.90;;;;;;5092103;28;20036;-77
2021/12/25 07:41:06;;;;;;;1.27;0.40;;;-4.60;99.90;;;;;;5106023;28;20051;-77
2021/12/25 07:43:32;;;;;;;1.48;0.68;;;-4.60;99.90;;;;;;5113060;27;20096;-78
2021/12/25 07:45:57;;;;;;;0.88;0.50;;;-4.70;99.90;;;;;;5116234;27;20039;-77
2021/12/25 07:48:25;;;;;;;2.72;0.43;;;-4.60;99.90;;;;;;5115496;27;20077;-78
2021/12/25 07:50:52;;;;;;;3.35;0.90;;;-4.60;99.90;;;;;;5115731;27;20501;-77
2021/12/25 07:53:18;;;;;;;1.02;0.90;;;-4.60;99.90;;;;;;5127995;27;20035;-77
2021/12/25 07:55:47;;;;;;;1.05;0.60;;;-4.50;99.90;;;;;;5096341;27;20503;-77
2021/12/25 07:58:13;;;;;;;1.37;0.87;;;-4.50;99.90;;;;;;5117525;27;20039;-76
2021/12/25 08:00:39;;;;;;;7.70;1.10;;;-4.60;99.90;;;;;;5114826;27;20050;-78
2021/12/25 08:03:05;;;;;;;3.15;0.57;;;-4.50;99.90;;;;;;5113030;27;20035;-77
2021/12/25 08:05:32;;;;;;;1.73;1.10;;;-4.50;99.90;;;;;;5119943;27;20093;-77
2021/12/25 08:07:58;;;;;;;1.30;0.55;;;-4.50;99.90;;;;;;5116008;27;20393;-78
2021/12/25 08:10:23;;;;;;;1.23;0.43;;;-4.60;99.90;;;;;;5083478;27;20039;-77
2021/12/25 08:12:54;;;;;;;1.50;0.63;;;-4.50;99.90;;;;;;5126267;27;20436;-79
2021/12/25 08:15:26;;;;;;;2.58;0.50;;;-4.50;99.90;;;;;;5108631;28;20126;-82
2021/12/25 08:17:56;;;;;;;2.63;0.90;;;-4.50;99.90;;;;;;5119323;27;20099;-80
2021/12/25 08:20:23;;;;;;;0.88;0.47;;;-4.50;99.90;;;;;;5083496;28;20039;-79
2021/12/25 08:22:48;;;;;;;5.82;0.70;;;-4.50;99.90;;;;;;5087692;28;20023;-79
2021/12/25 08:25:15;;;;;;;1.88;0.93;;;-4.40;99.90;;;;;;5121014;27;20123;-73
2021/12/25 08:27:43;;;;;;;3.15;0.70;;;-4.40;99.90;;;;;;5126198;27;20039;-81
2021/12/25 08:30:12;;;;;;;2.00;1.02;;;-4.40;99.90;;;;;;5126398;27;20066;-78
2021/12/25 08:32:39;;;;;;;2.00;0.40;;;-4.40;99.90;;;;;;5079566;27;20036;-80
2021/12/25 08:35:06;;;;;;;2.17;1.10;;;-4.40;99.90;;;;;;5100652;27;20074;-81
2021/12/25 08:37:31;;;;;;;3.30;0.75;;;-4.40;99.90;;;;;;5122193;27;20040;-79
2021/12/25 08:39:57;;;;;;;3.13;0.95;;;-4.40;99.90;;;;;;5117894;27;20039;-78
2021/12/25 08:42:23;;;;;;;2.88;0.88;;;-4.30;99.90;;;;;;5112525;28;20075;-79
2021/12/25 08:45:19;;;;;;;4.75;0.63;;;-4.30;99.90;;;;;;5113278;27;20048;-78
2021/12/25 08:47:38;;;;;;;2.90;1.67;;;-4.30;99.90;;;;;;5097481;28;20115;-78
2021/12/25 08:50:08;;;;;;;2.17;1.02;;;-4.20;99.90;;;;;;5121630;27;20039;-77
2021/12/25 08:52:34;;;;;;;2.85;0.60;;;-4.20;99.90;;;;;;5111639;27;20702;-79
2021/12/25 08:54:59;;;;;;;1.27;0.50;;;-4.20;99.90;;;;;;5112934;27;20134;-78
2021/12/25 08:57:25;;;;;;;1.40;0.30;;;-4.20;99.90;;;;;;5115183;27;20031;-78
2021/12/25 08:59:54;;;;;;;2.40;0.70;;;-4.10;99.90;;;;;;5112471;27;20050;-77
2021/12/25 09:02:20;;;;;;;3.50;0.43;;;-4.10;99.90;;;;;;5114473;27;20043;-77
2021/12/25 09:04:47;;;;;;;4.13;0.47;;;-4.10;99.90;;;;;;5124269;27;20039;-75
2021/12/25 09:07:13;;;;;;;1.42;0.65;;;-4.00;99.90;;;;;;5125922;27;20122;-77
2021/12/25 09:09:40;;;;;;;2.05;0.50;;;-4.00;99.90;;;;;;5121450;27;20035;-80
2021/12/25 09:12:06;;;;;;;2.08;0.63;;;-3.90;99.90;;;;;;5113856;27;20035;-78
2021/12/25 09:14:32;;;;;;;0.63;0.30;;;-4.00;99.90;;;;;;5094222;28;20545;-77
2021/12/25 09:16:58;;;;;;;0.95;0.70;;;-3.90;99.90;;;;;;5111881;28;20059;-78
2021/12/25 09:19:24;;;;;;;2.60;0.77;;;-3.90;99.90;;;;;;5111080;28;20036;-79
2021/12/25 09:21:49;;;;;;;3.58;0.90;;;-3.90;99.90;;;;;;5102772;27;20148;-79
2021/12/25 09:24:15;;;;;;;3.33;1.10;;;-3.80;99.90;;;;;;5115063;27;20031;-75
2021/12/25 09:26:42;;;;;;;3.55;0.85;;;-3.80;99.90;;;;;;5143848;27;20043;-82
2021/12/25 09:29:08;;;;;;;2.05;0.90;;;-3.70;99.90;;;;;;5136492;27;20043;-82
2021/12/25 09:31:34;;;;;;;2.40;0.70;;;-3.80;99.90;;;;;;5134237;27;20558;-83
2021/12/25 09:33:59;;;;;;;5.78;0.65;;;-3.70;99.90;;;;;;5113674;27;20132;-81
2021/12/25 09:36:27;;;;;;;1.48;0.60;;;-3.60;99.90;;;;;;5125804;27;20039;-82
2021/12/25 09:38:53;;;;;;;4.50;1.27;;;-3.60;99.90;;;;;;5116545;27;20542;-81
2021/12/25 09:41:19;;;;;;;7.53;2.38;;;-3.70;99.90;;;;;;5112498;28;20044;-79
2021/12/25 09:43:47;;;;;;;4.28;1.95;;;-3.60;99.90;;;;;;5115667;27;20106;-80
2021/12/25 09:46:14;;;;;;;1.83;0.63;;;-3.50;99.90;;;;;;5101307;27;20383;-77
2021/12/25 09:48:40;;;;;;;2.63;0.82;;;-3.60;99.90;;;;;;5106344;27;20035;-78
2021/12/25 09:51:06;;;;;;;2.28;0.77;;;-3.50;99.90;;;;;;5094392;28;20439;-80
2021/12/25 09:53:32;;;;;;;1.70;0.82;;;-3.40;99.90;;;;;;5102070;27;20040;-79
2021/12/25 09:55:58;;;;;;;4.18;2.00;;;-3.30;99.90;;;;;;5100603;28;20039;-80
2021/12/25 09:58:24;;;;;;;1.23;0.57;;;-3.30;99.90;;;;;;5118877;27;20039;-78
2021/12/25 10:00:51;;;;;;;5.90;1.80;;;-3.30;99.90;;;;;;5111434;28;20505;-79
2021/12/25 10:03:18;;;;;;;4.50;0.80;;;-3.20;99.90;;;;;;5123773;27;20046;-77
2021/12/25 10:05:47;;;;;;;7.13;1.15;;;-3.20;99.90;;;;;;5123765;27;20122;-77
2021/12/25 10:08:17;;;;;;;0.88;0.40;;;-3.10;99.90;;;;;;5093063;28;20130;-77
2021/12/25 10:10:50;;;;;;;4.95;0.57;;;-3.10;99.90;;;;;;5098310;28;20047;-74
2021/12/25 10:13:32;;;;;;;4.40;0.60;;;-3.10;99.90;;;;;;5091946;28;20470;-76
2021/12/25 10:16:18;;;;;;;2.03;0.90;;;-3.00;99.90;;;;;;5111192;28;20042;-77
2021/12/25 10:18:45;;;;;;;1.98;0.85;;;-3.00;99.90;;;;;;5093907;28;20126;-79
2021/12/25 10:21:23;;;;;;;5.85;1.63;;;-2.90;99.90;;;;;;5108108;27;20342;-77
2021/12/25 10:24:11;;;;;;;1.95;0.60;;;-2.90;99.90;;;;;;5130903;27;20073;-77
2021/12/25 10:26:39;;;;;;;1.83;0.60;;;-2.90;99.90;;;;;;5089398;28;20048;-77
2021/12/25 10:29:21;;;;;;;0.95;0.43;;;-2.90;99.90;;;;;;5087352;28;20409;-79
2021/12/25 10:31:48;;;;;;;6.05;0.77;;;-2.80;99.90;;;;;;5073485;28;20086;-78
2021/12/25 10:34:17;;;;;;;2.33;0.43;;;-2.80;99.90;;;;;;5071040;28;20049;-77
2021/12/25 10:36:44;;;;;;;5.10;1.17;;;-2.70;99.90;;;;;;5069814;28;20634;-78
2021/12/25 10:39:13;;;;;;;8.75;0.60;;;-2.80;99.90;;;;;;5068866;28;20139;-77
2021/12/25 10:42:03;;;;;;;5.30;0.98;;;-2.70;99.90;;;;;;5082976;28;20556;-76
2021/12/25 10:44:32;;;;;;;3.08;0.43;;;-2.70;99.90;;;;;;5077291;28;20056;-76
2021/12/25 10:46:59;;;;;;;2.97;1.67;;;-2.70;99.90;;;;;;5068525;28;20040;-77
2021/12/25 10:49:34;;;;;;;4.05;0.45;;;-2.70;99.90;;;;;;5081601;28;20040;-76
2021/12/25 10:52:11;;;;;;;4.65;1.58;;;-2.70;99.90;;;;;;5083309;28;20048;-77
2021/12/25 10:54:41;;;;;;;1.88;0.47;;;-2.60;99.90;;;;;;5073082;28;20506;-77
2021/12/25 10:57:06;;;;;;;1.00;0.50;;;-2.60;99.90;;;;;;5088977;28;20044;-76
2021/12/25 10:59:45;;;;;;;1.05;0.50;;;-2.50;99.90;;;;;;5089085;28;20102;-76
2021/12/25 11:02:37;;;;;;;2.33;0.70;;;-2.50;99.90;;;;;;5077918;28;20084;-77
2021/12/25 11:05:28;;;;;;;2.78;1.00;;;-2.50;99.90;;;;;;5096609;28;20121;-77
2021/12/25 11:08:06;;;;;;;2.42;0.63;;;-2.40;99.90;;;;;;5066662;28;20060;-74
2021/12/25 11:10:40;;;;;;;3.20;0.60;;;-2.40;99.90;;;;;;5071042;28;20044;-77
2021/12/25 11:13:22;;;;;;;0.88;0.43;;;-2.40;99.90;;;;;;5072930;28;20101;-76
2021/12/25 11:15:49;;;;;;;5.13;0.82;;;-2.40;99.90;;;;;;5079322;28;20127;-76
2021/12/25 11:18:16;;;;;;;1.70;0.57;;;-2.30;99.90;;;;;;5075470;28;20398;-75
2021/12/25 11:20:44;;;;;;;1.10;0.82;;;-2.40;99.90;;;;;;5080669;28;20040;-77
2021/12/25 11:23:11;;;;;;;3.67;1.30;;;-2.30;99.90;;;;;;5088722;28;20080;-79
2021/12/25 11:25:39;;;;;;;1.15;0.57;;;-2.20;99.90;;;;;;5112548;27;20072;-78
2021/12/25 11:28:10;;;;;;;2.55;0.43;;;-2.30;99.90;;;;;;5129098;27;21405;-78
2021/12/25 11:30:38;;;;;;;3.67;0.73;;;-2.30;99.90;;;;;;5123659;27;20126;-77
2021/12/25 11:33:04;;;;;;;3.28;0.68;;;-2.20;99.90;;;;;;5091541;28;20097;-77
2021/12/25 11:35:34;;;;;;;5.22;0.50;;;-2.20;99.90;;;;;;5091305;28;20490;-78
2021/12/25 11:38:00;;;;;;;4.47;0.57;;;-2.20;99.90;;;;;;5064105;28;20393;-78
2021/12/25 11:40:31;;;;;;;2.75;0.73;;;-2.10;99.90;;;;;;5109498;28;20418;-77
2021/12/25 11:43:00;;;;;;;3.83;0.63;;;-2.10;99.90;;;;;;5115511;28;20084;-77
2021/12/25 11:45:34;;;;;;;1.10;0.60;;;-2.10;99.90;;;;;;5093062;28;20568;-75
2021/12/25 11:48:18;;;;;;;0.98;0.70;;;-2.20;99.90;;;;;;5090659;28;20119;-77
2021/12/25 11:50:47;;;;;;;2.88;0.75;;;-2.10;99.90;;;;;;5117436;28;20088;-80
2021/12/25 11:53:42;;;;;;;4.20;0.82;;;-2.10;99.90;;;;;;5114731;28;20032;-77
2021/12/25 11:56:30;;;;;;;0.85;0.68;;;-2.20;99.90;;;;;;5119943;28;20120;-76
2021/12/25 11:58:58;;;;;;;3.35;0.90;;;-2.00;99.90;;;;;;5105588;28;20438;-77
2021/12/25 12:01:48;;;;;;;1.23;0.60;;;-2.00;99.90;;;;;;5113662;28;20036;-78
2021/12/25 12:04:18;;;;;;;2.95;1.00;;;-2.00;99.90;;;;;;5122552;28;20055;-74
2021/12/25 12:06:44;;;;;;;3.47;0.93;;;-1.90;99.90;;;;;;5130128;28;20051;-79
2021/12/25 12:09:12;;;;;;;1.08;0.60;;;-2.10;99.90;;;;;;5126404;28;20048;-85
2021/12/25 12:11:41;;;;;;;4.40;0.50;;;-2.00;99.90;;;;;;5093309;28;20039;-83
2021/12/25 12:14:12;;;;;;;3.53;0.68;;;-2.00;99.90;;;;;;5110341;28;20476;-83
2021/12/25 12:16:42;;;;;;;3.08;0.85;;;-2.10;99.90;;;;;;5091325;28;20136;-78
2021/12/25 12:19:29;;;;;;;4.15;0.60;;;-2.00;99.90;;;;;;5117923;28;20084;-79
2021/12/25 12:21:55;;;;;;;0.93;0.40;;;-1.90;99.90;;;;;;5099366;28;20055;-77
2021/12/25 12:27:03;;;;;;;3.42;0.60;;;-2.00;99.90;;;;;;5129496;28;20214;-78
2021/12/25 12:29:45;;;;;;;4.60;1.65;;;-1.90;99.90;;;;;;5132216;27;20046;-79
2021/12/25 12:32:20;;;;;;;1.85;1.20;;;-1.90;99.90;;;;;;5116975;27;20047;-82
2021/12/25 12:34:51;;;;;;;4.63;1.52;;;-1.90;99.90;;;;;;5087654;28;20043;-80
2021/12/25 12:37:16;;;;;;;2.53;1.10;;;-1.90;99.90;;;;;;5112486;28;20192;-81
2021/12/25 12:40:00;;;;;;;5.05;1.20;;;-1.90;99.90;;;;;;5121122;27;20455;-79
2021/12/25 12:42:49;;;;;;;3.85;1.40;;;-2.00;99.90;;;;;;5133278;27;20047;-79
2021/12/25 12:45:23;;;;;;;2.85;0.68;;;-1.90;99.90;;;;;;5122491;27;20064;-77
2021/12/25 12:48:09;;;;;;;4.30;1.40;;;-1.80;99.90;;;;;;5113012;27;20036;-78
2021/12/25 12:50:37;;;;;;;6.55;1.67;;;-1.80;99.90;;;;;;5079687;28;20040;-80
2021/12/25 12:53:09;;;;;;;4.55;1.25;;;-1.80;99.90;;;;;;5122689;27;20508;-80
2021/12/25 12:55:38;;;;;;;3.60;1.02;;;-1.90;99.90;;;;;;5101378;28;20043;-80
2021/12/25 12:58:17;;;;;;;1.25;0.55;;;-1.90;99.90;;;;;;5112571;28;20044;-80
2021/12/25 13:00:56;;;;;;;3.03;0.55;;;-1.80;99.90;;;;;;5102946;27;20397;-80
2021/12/25 13:03:23;;;;;;;4.82;0.70;;;-1.90;99.90;;;;;;5113754;27;20092;-78
2021/12/25 13:05:54;;;;;;;3.42;1.67;;;-1.80;99.90;;;;;;5114753;27;20070;-80
2021/12/25 13:08:20;;;;;;;2.83;0.50;;;-1.80;99.90;;;;;;5132688;27;20037;-82
2021/12/25 13:10:51;;;;;;;1.35;0.47;;;-1.70;99.90;;;;;;5128415;27;20114;-81
2021/12/25 13:13:18;;;;;;;1.25;0.70;;;-1.80;99.90;;;;;;5084369;27;20084;-80
2021/12/25 13:15:46;;;;;;;3.92;0.70;;;-1.80;99.90;;;;;;5119659;27;20396;-81
2021/12/25 13:18:12;;;;;;;2.53;1.08;;;-1.70;99.90;;;;;;5112240;27;20096;-79
2021/12/25 13:20:43;;;;;;;3.03;1.20;;;-1.80;99.90;;;;;;5091495;28;20130;-79
2021/12/25 13:23:18;;;;;;;4.47;2.58;;;-1.80;99.90;;;;;;5098685;27;20035;-80
2021/12/25 13:25:57;;;;;;;2.83;1.48;;;-1.70;99.90;;;;;;5113180;27;20518;-79
2021/12/25 13:28:23;;;;;;;3.47;2.10;;;-1.80;99.90;;;;;;5114385;27;20040;-80
2021/12/25 13:30:52;;;;;;;1.83;0.70;;;-1.70;99.90;;;;;;5112849;28;20043;-80
2021/12/25 13:33:26;;;;;;;4.23;0.90;;;-1.80;99.90;;;;;;5111869;27;20051;-82
2021/12/25 13:36:05;;;;;;;2.45;0.93;;;-1.80;99.90;;;;;;5112102;28;20043;-80
2021/12/25 13:38:50;;;;;;;3.40;1.13;;;-1.80;99.90;;;;;;5118779;27;20031;-79
2021/12/25 13:41:34;;;;;;;3.00;0.65;;;-1.70;99.90;;;;;;5131873;27;20043;-78
2021/12/25 13:44:19;;;;;;;5.90;1.58;;;-1.80;99.90;;;;;;5112290;27;20048;-81
2021/12/25 13:46:44;;;;;;;3.55;0.80;;;-1.80;99.90;;;;;;5116122;27;20043;-75
2021/12/25 13:49:32;;;;;;;1.75;1.08;;;-1.80;99.90;;;;;;5096933;27;20058;-76
2021/12/25 13:52:01;;;;;;;4.05;1.20;;;-1.70;99.90;;;;;;5097394;27;20044;-75
2021/12/25 13:54:27;;;;;;;4.05;0.73;;;-1.80;99.90;;;;;;5095867;27;20497;-76
2021/12/25 13:56:54;;;;;;;2.53;1.10;;;-1.80;99.90;;;;;;5121076;27;20038;-77
2021/12/25 13:59:20;;;;;;;3.53;0.90;;;-1.80;99.90;;;;;;5124247;27;20043;-76
2021/12/25 14:02:03;;;;;;;2.65;1.85;;;-1.80;99.90;;;;;;5113991;27;20123;-77
2021/12/25 14:04:29;;;;;;;5.68;0.68;;;-1.80;99.90;;;;;;5108790;27;20092;-76
2021/12/25 14:06:56;;;;;;;2.65;1.38;;;-1.80;99.90;;;;;;5085794;28;20037;-76
2021/12/25 14:09:22;;;;;;;3.80;0.75;;;-1.90;99.90;;;;;;5083417;28;20051;-74
2021/12/25 14:11:53;;;;;;;4.18;1.88;;;-1.90;99.90;;;;;;5127410;27;20039;-73
2021/12/25 14:14:21;;;;;;;2.28;0.82;;;-1.90;99.90;;;;;;5115872;27;20047;-74